createdAt,value
2019-05-16T00:00:58.942Z,2.90
2019-05-16T00:03:28.247Z,3.35
2019-05-16T00:05:58.454Z,3.37
2019-05-16T00:08:28.531Z,3.60
2019-05-16T00:10:58.320Z,3.33
2019-05-16T00:13:28.146Z,3.20
2019-05-16T00:15:58.769Z,3.27
2019-05-16T00:18:28.589Z,3.62
2019-05-16T00:20:58.486Z,3.15
2019-05-16T00:23:28.917Z,3.83
2019-05-16T00:25:58.728Z,3.50
2019-05-16T00:28:28.591Z,3.22
2019-05-16T00:30:59.158Z,3.95
2019-05-16T00:33:28.811Z,3.50
2019-05-16T00:36:03.513Z,3.47
2019-05-16T00:38:29.044Z,3.60
2019-05-16T00:40:59.045Z,3.52
2019-05-16T00:43:28.998Z,3.10
2019-05-16T00:45:58.905Z,3.37
2019-05-16T00:48:28.869Z,3.62
2019-05-16T00:50:58.552Z,3.42
2019-05-16T00:53:28.873Z,3.60
2019-05-16T00:55:58.921Z,3.45
2019-05-16T00:58:30.186Z,3.60
2019-05-16T01:00:59.443Z,3.45
2019-05-16T01:03:29.217Z,3.30
2019-05-16T01:05:58.436Z,3.65
2019-05-16T01:08:28.276Z,3.42
2019-05-16T01:10:58.731Z,3.47
2019-05-16T01:13:28.167Z,3.87
2019-05-16T01:15:57.955Z,4.10
2019-05-16T01:18:28.690Z,3.20
2019-05-16T01:20:58.541Z,3.80
2019-05-16T01:23:28.355Z,3.47
2019-05-16T01:25:58.832Z,3.40
2019-05-16T01:28:28.536Z,3.50
2019-05-16T01:30:58.158Z,3.60
2019-05-16T01:33:28.138Z,3.30
2019-05-16T01:35:58.519Z,3.90
2019-05-16T01:38:28.478Z,3.58
2019-05-16T01:40:58.450Z,3.47
2019-05-16T01:43:28.380Z,3.90
2019-05-16T01:45:57.921Z,3.70
2019-05-16T01:48:29.223Z,4.08
2019-05-16T01:50:58.458Z,3.70
2019-05-16T01:53:27.947Z,3.60
2019-05-16T01:55:58.016Z,3.55
2019-05-16T01:58:28.969Z,3.30
2019-05-16T02:01:11.551Z,4.37
2019-05-16T02:03:29.465Z,4.00
2019-05-16T02:05:58.764Z,3.30
2019-05-16T02:08:28.652Z,4.08
2019-05-16T02:10:58.494Z,3.60
2019-05-16T02:13:28.565Z,3.65
2019-05-16T02:15:59.237Z,4.05
2019-05-16T02:18:28.989Z,4.70
2019-05-16T02:21:01.279Z,3.95
2019-05-16T02:23:29.477Z,4.03
2019-05-16T02:25:58.772Z,3.98
2019-05-16T02:28:36.090Z,5.15
2019-05-16T02:31:01.304Z,3.80
2019-05-16T02:33:31.603Z,3.50
2019-05-16T02:36:01.739Z,3.65
2019-05-16T02:38:31.828Z,4.33
2019-05-16T02:41:03.144Z,4.17
2019-05-16T02:43:32.319Z,4.35
2019-05-16T02:46:01.644Z,3.83
2019-05-16T02:48:34.747Z,4.58
2019-05-16T02:51:02.172Z,4.05
2019-05-16T02:53:31.552Z,4.30
2019-05-16T02:56:01.612Z,4.10
2019-05-16T02:58:31.106Z,4.37
2019-05-16T03:01:01.990Z,3.95
2019-05-16T03:03:31.945Z,4.03
2019-05-16T03:06:01.860Z,4.75
2019-05-16T03:08:32.408Z,4.75
2019-05-16T03:11:01.622Z,4.70
2019-05-16T03:13:33.212Z,3.60
2019-05-16T03:16:04.295Z,4.30
2019-05-16T03:18:35.130Z,4.28
2019-05-16T03:21:06.969Z,4.97
2019-05-16T03:23:36.251Z,4.58
2019-05-16T03:26:05.519Z,4.72
2019-05-16T03:28:34.775Z,4.30
2019-05-16T03:31:05.815Z,4.62
2019-05-16T03:33:41.537Z,4.85
2019-05-16T03:36:05.991Z,4.40
2019-05-16T03:38:35.208Z,4.15
2019-05-16T03:41:04.400Z,4.42
2019-05-16T03:43:33.692Z,4.80
2019-05-16T03:46:02.951Z,4.78
2019-05-16T03:48:32.115Z,4.78
2019-05-16T03:51:01.318Z,5.37
2019-05-16T03:53:31.788Z,4.67
2019-05-16T03:56:01.817Z,5.12
2019-05-16T03:58:31.321Z,4.80
2019-05-16T04:01:02.420Z,5.15
2019-05-16T04:03:33.197Z,5.55
2019-05-16T04:06:02.454Z,5.22
2019-05-16T04:08:31.754Z,5.15
2019-05-16T04:11:01.524Z,6.00
2019-05-16T04:13:31.776Z,5.80
2019-05-16T04:16:01.643Z,5.55
2019-05-16T04:18:31.842Z,5.40
2019-05-16T04:21:01.549Z,6.00
2019-05-16T04:23:31.617Z,5.30
2019-05-16T04:26:01.855Z,6.83
2019-05-16T04:28:32.080Z,6.15
2019-05-16T04:31:02.250Z,6.05
2019-05-16T04:33:31.837Z,5.80
2019-05-16T04:36:01.519Z,6.08
2019-05-16T04:38:40.876Z,5.62
2019-05-16T04:41:02.888Z,5.78
2019-05-16T04:43:32.107Z,5.85
2019-05-16T04:46:01.767Z,6.78
2019-05-16T04:48:31.513Z,6.70
2019-05-16T04:51:01.609Z,6.08
2019-05-16T04:53:31.831Z,6.75
2019-05-16T04:56:02.040Z,6.25
2019-05-16T04:58:31.816Z,6.12
2019-05-16T05:01:01.653Z,6.25
2019-05-16T05:03:31.719Z,6.55
2019-05-16T05:06:01.655Z,6.87
2019-05-16T05:08:47.454Z,7.37
2019-05-16T05:11:02.003Z,6.75
2019-05-16T05:13:31.182Z,7.33
2019-05-16T05:16:01.311Z,7.15
2019-05-16T05:18:30.910Z,7.92
2019-05-16T05:21:00.878Z,6.85
2019-05-16T05:23:30.639Z,6.30
2019-05-16T05:26:00.277Z,6.80
2019-05-16T05:28:30.052Z,7.15
2019-05-16T05:30:59.892Z,6.75
2019-05-16T05:33:30.250Z,7.05
2019-05-16T05:36:01.008Z,6.37
2019-05-16T05:38:31.180Z,6.80
2019-05-16T05:41:00.644Z,6.20
2019-05-16T05:43:30.519Z,7.58
2019-05-16T05:46:00.705Z,6.50
2019-05-16T05:48:30.793Z,7.55
2019-05-16T05:51:00.487Z,6.67
2019-05-16T05:53:30.244Z,6.40
2019-05-16T05:56:00.478Z,6.33
2019-05-16T05:58:31.019Z,6.70
2019-05-16T06:01:00.729Z,6.58
2019-05-16T06:03:32.943Z,6.42
2019-05-16T06:06:01.239Z,7.60
2019-05-16T06:08:30.887Z,7.55
2019-05-16T06:11:00.850Z,6.67
2019-05-16T06:13:31.124Z,6.97
2019-05-16T06:16:00.486Z,7.37
2019-05-16T06:18:30.486Z,8.05
2019-05-16T06:21:00.705Z,7.03
2019-05-16T06:23:31.044Z,8.63
2019-05-16T06:26:00.758Z,8.10
2019-05-16T06:28:30.844Z,7.50
2019-05-16T06:31:02.024Z,6.90
2019-05-16T06:33:31.466Z,6.95
2019-05-16T06:36:00.738Z,6.58
2019-05-16T06:38:30.159Z,5.55
2019-05-16T06:41:00.324Z,5.95
2019-05-16T06:43:30.345Z,6.75
2019-05-16T06:46:00.602Z,5.95
2019-05-16T06:48:30.564Z,7.28
2019-05-16T06:51:03.045Z,6.37
2019-05-16T06:53:30.882Z,6.05
2019-05-16T06:56:00.311Z,5.50
2019-05-16T06:58:30.197Z,5.62
2019-05-16T07:01:03.444Z,6.20
2019-05-16T07:03:31.020Z,6.10
2019-05-16T07:06:00.838Z,5.30
2019-05-16T07:08:30.994Z,5.60
2019-05-16T07:11:00.585Z,5.62
2019-05-16T07:13:30.338Z,5.25
2019-05-16T07:16:00.465Z,7.37
2019-05-16T07:18:31.066Z,5.30
2019-05-16T07:21:00.586Z,5.50
2019-05-16T07:23:30.052Z,5.65
2019-05-16T07:26:00.857Z,5.65
2019-05-16T07:28:30.353Z,5.37
2019-05-16T07:31:02.929Z,4.78
2019-05-16T07:33:31.266Z,5.05
2019-05-16T07:36:00.865Z,4.30
2019-05-16T07:38:30.944Z,4.95
2019-05-16T07:41:00.465Z,5.47
2019-05-16T07:43:30.841Z,5.00
2019-05-16T07:46:00.731Z,5.97
2019-05-16T07:48:31.655Z,5.90
2019-05-16T07:51:00.847Z,6.40
2019-05-16T07:53:33.070Z,6.67
2019-05-16T07:56:01.069Z,5.67
2019-05-16T07:58:31.353Z,6.10
2019-05-16T08:01:04.504Z,6.08
2019-05-16T08:03:31.841Z,9.00
2019-05-16T08:06:02.066Z,6.17
2019-05-16T08:08:31.842Z,5.62
2019-05-16T08:11:01.764Z,5.75
2019-05-16T08:13:31.140Z,6.15
2019-05-16T08:16:01.375Z,5.37
2019-05-16T08:18:30.825Z,5.90
2019-05-16T08:21:01.218Z,5.17
2019-05-16T08:23:30.910Z,5.67
2019-05-16T08:26:01.276Z,6.28
2019-05-16T08:28:31.191Z,6.00
2019-05-16T08:36:07.936Z,5.20
2019-05-16T08:38:33.500Z,5.57
2019-05-16T08:43:35.061Z,5.53
2019-05-16T08:46:04.542Z,4.77
2019-05-16T08:48:33.936Z,5.10
2019-05-16T08:51:03.347Z,4.30
2019-05-16T08:53:32.882Z,4.60
2019-05-16T08:56:02.813Z,4.63
2019-05-16T08:58:33.292Z,5.00
2019-05-16T09:01:02.979Z,4.87
2019-05-16T09:03:32.958Z,4.23
2019-05-16T09:06:03.058Z,4.80
2019-05-16T09:08:33.097Z,4.57
2019-05-16T09:10:20.962Z,6.20
2019-05-16T09:10:35.053Z,5.80
2019-05-16T09:11:24.863Z,4.50
2019-05-16T09:13:33.361Z,4.97
2019-05-16T09:16:02.763Z,5.10
2019-05-16T09:18:30.370Z,4.73
2019-05-16T09:18:40.678Z,4.77
2019-05-16T09:21:07.334Z,3.70
2019-05-16T09:23:38.323Z,3.60
2019-05-16T09:26:08.028Z,3.97
2019-05-16T09:28:38.916Z,4.47
2019-05-16T09:31:08.305Z,3.53
2019-05-16T09:33:37.674Z,4.13
2019-05-16T09:36:08.003Z,3.47
2019-05-16T09:38:38.468Z,3.93
2019-05-16T09:41:08.281Z,3.90
2019-05-16T09:43:38.819Z,4.50
2019-05-16T09:46:08.933Z,3.77
2019-05-16T09:48:38.429Z,4.37
2019-05-16T09:51:07.899Z,3.67
2019-05-16T09:53:37.300Z,3.40
2019-05-16T09:56:09.853Z,3.40
2019-05-16T09:58:39.121Z,2.80
2019-05-16T10:01:08.413Z,3.30
2019-05-16T10:03:37.789Z,2.97
2019-05-16T10:06:08.089Z,2.43
2019-05-16T10:08:37.819Z,3.07
2019-05-16T10:11:07.301Z,2.50
2019-05-16T10:13:37.680Z,2.37
2019-05-16T10:16:07.407Z,3.73
2019-05-16T10:18:37.090Z,2.63
2019-05-16T10:21:08.075Z,2.57
2019-05-16T10:23:37.457Z,2.47
2019-05-16T10:26:06.718Z,2.80
2019-05-16T10:28:38.475Z,3.10
2019-05-16T10:31:07.040Z,2.70
2019-05-16T10:33:38.925Z,3.77
2019-05-16T10:36:08.451Z,2.70
2019-05-16T10:38:37.890Z,3.53
2019-05-16T10:41:07.424Z,3.17
2019-05-16T10:43:37.099Z,3.13
2019-05-16T10:46:06.697Z,2.40
2019-05-16T10:48:37.579Z,2.63
2019-05-16T10:51:07.996Z,3.03
2019-05-16T10:54:00.629Z,3.00
2019-05-16T10:56:08.367Z,3.30
2019-05-16T10:59:04.001Z,3.87
2019-05-16T11:01:22.480Z,3.80
2019-05-16T11:03:39.636Z,3.50
2019-05-16T11:06:23.301Z,3.00
2019-05-16T11:08:39.781Z,3.80
2019-05-16T11:11:09.178Z,3.77
2019-05-16T11:13:38.366Z,3.97
2019-05-16T11:16:09.588Z,4.33
2019-05-16T11:18:38.641Z,4.70
2019-05-16T11:21:07.804Z,4.23
2019-05-16T11:23:37.001Z,4.10
2019-05-16T11:26:06.229Z,4.07
2019-05-16T11:28:36.744Z,4.50
2019-05-16T11:31:07.690Z,5.17
2019-05-16T11:33:37.169Z,4.40
2019-05-16T11:36:08.081Z,4.77
2019-05-16T11:38:37.846Z,4.60
2019-05-16T11:41:07.529Z,4.50
2019-05-16T11:43:36.916Z,4.80
2019-05-16T11:46:06.129Z,5.83
2019-05-16T11:48:37.808Z,5.53
2019-05-16T11:51:07.225Z,4.77
2019-05-16T11:53:37.864Z,4.83
2019-05-16T11:56:08.361Z,5.40
2019-05-16T11:58:37.868Z,4.80
2019-05-16T12:01:07.808Z,4.60
2019-05-16T12:03:37.545Z,4.83
2019-05-16T12:06:10.256Z,4.93
2019-05-16T12:08:37.868Z,5.20
2019-05-16T12:11:07.148Z,4.20
2019-05-16T12:13:37.002Z,4.43
2019-05-16T12:16:07.622Z,4.83
2019-05-16T12:18:37.472Z,4.27
2019-05-16T12:21:07.631Z,4.00
2019-05-16T12:23:37.526Z,4.00
2019-05-16T12:26:07.729Z,3.97
2019-05-16T12:28:37.347Z,3.53
2019-05-16T12:31:07.216Z,3.73
2019-05-16T12:33:37.744Z,3.60
2019-05-16T12:36:07.672Z,3.33
2019-05-16T12:38:37.911Z,3.70
2019-05-16T12:41:07.915Z,4.13
2019-05-16T12:43:48.230Z,3.60
2019-05-16T12:46:08.098Z,3.83
2019-05-16T12:48:37.638Z,3.80
2019-05-16T12:51:08.482Z,3.70
2019-05-16T12:53:38.046Z,3.33
2019-05-16T12:56:07.385Z,3.70
2019-05-16T12:58:41.684Z,3.60
2019-05-16T13:01:07.956Z,3.70
2019-05-16T13:03:38.107Z,3.57
2019-05-16T13:06:07.749Z,4.00
2019-05-16T13:08:37.474Z,3.50
2019-05-16T13:11:07.498Z,5.00
2019-05-16T13:13:37.660Z,4.00
2019-05-16T13:16:07.709Z,3.90
2019-05-16T13:18:37.204Z,3.70
2019-05-16T13:21:06.812Z,3.43
2019-05-16T13:23:36.248Z,3.80
2019-05-16T13:26:07.318Z,4.60
2019-05-16T13:28:37.869Z,4.00
2019-05-16T13:31:07.707Z,4.47
2019-05-16T13:33:37.136Z,4.67
2019-05-16T13:36:07.524Z,5.10
2019-05-16T13:38:37.075Z,4.73
2019-05-16T13:41:07.400Z,4.43
2019-05-16T13:43:37.526Z,5.20
2019-05-16T13:46:07.609Z,4.97
2019-05-16T13:48:37.774Z,4.40
2019-05-16T13:51:14.949Z,4.90
2019-05-16T13:53:38.156Z,5.13
2019-05-16T13:56:13.192Z,4.77
2019-05-16T13:58:38.592Z,4.60
2019-05-16T14:01:08.136Z,4.80
2019-05-16T14:03:37.635Z,4.17
2019-05-16T14:06:07.384Z,4.33
2019-05-16T14:08:37.514Z,5.17
2019-05-16T14:11:10.352Z,4.20
2019-05-16T14:13:38.068Z,4.77
2019-05-16T14:16:07.542Z,4.90
2019-05-16T14:18:38.030Z,4.00
2019-05-16T14:21:07.337Z,4.40
2019-05-16T14:23:37.996Z,3.67
2019-05-16T14:26:07.753Z,4.13
2019-05-16T14:28:37.697Z,4.60
2019-05-16T14:31:07.591Z,4.33
2019-05-16T14:33:36.939Z,3.53
2019-05-16T14:36:07.436Z,3.53
2019-05-16T14:38:37.371Z,3.43
2019-05-16T14:41:08.207Z,2.80
2019-05-16T14:43:37.688Z,3.90
2019-05-16T14:46:09.391Z,3.93
2019-05-16T14:48:37.907Z,4.00
2019-05-16T14:51:07.255Z,4.10
2019-05-16T14:53:37.929Z,4.70
2019-05-16T14:56:07.456Z,5.13
2019-05-16T14:58:37.730Z,4.47
2019-05-16T15:01:07.633Z,4.17
2019-05-16T15:03:37.161Z,4.83
2019-05-16T15:06:08.595Z,5.33
2019-05-16T15:08:37.499Z,5.13
2019-05-16T15:11:07.630Z,4.83
2019-05-16T15:13:37.144Z,4.07
2019-05-16T15:16:07.571Z,4.70
2019-05-16T15:18:38.473Z,4.30
2019-05-16T15:21:08.775Z,4.23
2019-05-16T15:23:38.237Z,4.70
2019-05-16T15:26:09.350Z,4.87
2019-05-16T15:28:38.271Z,5.27
2019-05-16T15:31:07.699Z,5.50
2019-05-16T15:33:36.940Z,4.37
2019-05-16T15:36:08.494Z,5.30
2019-05-16T15:38:37.103Z,4.60
2019-05-16T15:41:08.160Z,5.80
2019-05-16T15:43:37.140Z,5.60
2019-05-16T15:46:08.263Z,5.73
2019-05-16T15:48:37.671Z,5.17
2019-05-16T15:51:08.670Z,5.60
2019-05-16T15:53:39.821Z,4.87
2019-05-16T15:56:10.513Z,5.57
2019-05-16T15:58:40.151Z,4.93
2019-05-16T16:01:09.344Z,4.50
2019-05-16T16:03:38.773Z,5.57
2019-05-16T16:06:08.220Z,5.20
2019-05-16T16:08:37.695Z,6.03
2019-05-16T16:11:07.713Z,5.67
2019-05-16T16:13:37.665Z,5.00
2019-05-16T16:16:10.202Z,5.83
2019-05-16T16:18:38.174Z,5.33
2019-05-16T16:21:07.757Z,5.53
2019-05-16T16:23:37.425Z,5.60
2019-05-16T16:26:08.550Z,5.30
2019-05-16T16:28:38.406Z,5.47
2019-05-16T16:31:08.136Z,5.70
2019-05-16T16:33:37.745Z,6.53
2019-05-16T16:36:07.772Z,5.70
2019-05-16T16:38:37.490Z,5.17
2019-05-16T16:41:08.122Z,5.33
2019-05-16T16:43:37.860Z,5.70
2019-05-16T16:46:12.987Z,5.30
2019-05-16T16:48:38.241Z,5.17
2019-05-16T16:51:08.891Z,5.73
2019-05-16T16:53:38.329Z,5.73
2019-05-16T16:56:07.879Z,4.93
2019-05-16T16:58:37.690Z,5.33
2019-05-16T17:01:07.599Z,5.50
2019-05-16T17:03:37.553Z,5.20
2019-05-16T17:06:06.844Z,5.10
2019-05-16T17:08:37.449Z,5.73
2019-05-16T17:11:07.875Z,5.20
2019-05-16T17:13:37.377Z,5.10
2019-05-16T17:16:21.627Z,6.07
2019-05-16T17:18:37.829Z,6.07
2019-05-16T17:21:07.932Z,5.73
2019-05-16T17:23:37.511Z,5.87
2019-05-16T17:26:07.537Z,5.00
2019-05-16T17:28:37.391Z,5.83
2019-05-16T17:31:07.302Z,6.30
2019-05-16T17:33:38.266Z,5.70
2019-05-16T17:36:09.021Z,5.77
2019-05-16T17:38:38.653Z,4.90
2019-05-16T17:41:08.136Z,5.17
2019-05-16T17:43:37.391Z,5.50
2019-05-16T17:46:07.182Z,5.70
2019-05-16T17:48:37.917Z,5.60
2019-05-16T17:51:07.677Z,5.93
2019-05-16T17:53:37.473Z,5.63
2019-05-16T17:56:07.158Z,6.00
2019-05-16T17:58:36.413Z,6.03
2019-05-16T18:01:07.693Z,7.40
2019-05-16T18:03:37.422Z,5.37
2019-05-16T18:06:07.092Z,5.70
2019-05-16T18:08:37.466Z,5.03
2019-05-16T18:11:07.265Z,5.37
2019-05-16T18:13:37.288Z,5.70
2019-05-16T18:16:07.501Z,5.13
2019-05-16T18:18:37.735Z,5.50
2019-05-16T18:21:07.256Z,5.40
2019-05-16T18:23:37.037Z,5.73
2019-05-16T18:26:07.764Z,6.07
2019-05-16T18:28:37.206Z,5.60
2019-05-16T18:31:06.728Z,5.90
2019-05-16T18:33:37.174Z,6.87
2019-05-16T18:36:07.622Z,4.40
2019-05-16T18:38:37.545Z,5.70
2019-05-16T18:41:07.746Z,4.67
2019-05-16T18:43:37.432Z,5.73
2019-05-16T18:46:07.334Z,5.33
2019-05-16T18:48:36.858Z,4.40
2019-05-16T18:51:06.672Z,4.97
2019-05-16T18:53:37.410Z,6.40
2019-05-16T18:56:07.788Z,5.30
2019-05-16T18:58:37.461Z,5.43
2019-05-16T19:01:06.926Z,5.70
2019-05-16T19:03:36.217Z,5.50
2019-05-16T19:06:07.534Z,4.43
2019-05-16T19:08:36.532Z,5.60
2019-05-16T19:11:07.486Z,6.20
2019-05-16T19:13:37.020Z,5.00
2019-05-16T19:16:06.439Z,4.80
2019-05-16T19:18:36.861Z,5.00
2019-05-16T19:21:07.580Z,4.90
2019-05-16T19:23:37.713Z,6.17
2019-05-16T19:26:07.448Z,4.47
2019-05-16T19:28:37.403Z,4.90
2019-05-16T19:31:07.120Z,5.53
2019-05-16T19:33:36.648Z,5.43
2019-05-16T19:36:07.335Z,5.43
2019-05-16T19:38:37.499Z,5.40
2019-05-16T19:41:08.107Z,5.23
2019-05-16T19:43:37.631Z,5.60
2019-05-16T19:46:06.822Z,4.63
2019-05-16T19:48:37.100Z,4.70
2019-05-16T19:51:07.524Z,5.77
2019-05-16T19:53:37.072Z,5.63
2019-05-16T19:56:07.237Z,5.07
2019-05-16T19:58:37.235Z,5.47
2019-05-16T20:01:06.788Z,5.10
2019-05-16T20:03:36.539Z,5.90
2019-05-16T20:06:07.555Z,5.80
2019-05-16T20:08:37.353Z,5.17
2019-05-16T20:11:06.868Z,5.37
2019-05-16T20:13:36.724Z,4.30
2019-05-16T20:16:06.205Z,4.90
2019-05-16T20:18:37.246Z,4.73
2019-05-16T20:21:06.512Z,4.10
2019-05-16T20:23:36.978Z,5.23
2019-05-16T20:26:07.776Z,4.60
2019-05-16T20:28:37.188Z,4.60
2019-05-16T20:31:07.925Z,4.70
2019-05-16T20:33:37.753Z,5.03
2019-05-16T20:36:09.479Z,4.67
2019-05-16T20:38:38.133Z,4.97
2019-05-16T20:41:07.959Z,5.00
2019-05-16T20:43:37.342Z,4.83
2019-05-16T20:46:07.330Z,5.10
2019-05-16T20:48:37.045Z,5.20
2019-05-16T20:51:07.226Z,5.12
2019-05-16T20:53:37.551Z,5.47
2019-05-16T20:56:06.809Z,5.37
2019-05-16T20:58:35.951Z,4.85
2019-05-16T21:01:07.021Z,4.60
2019-05-16T21:03:37.847Z,5.00
2019-05-16T21:06:08.412Z,4.90
2019-05-16T21:08:38.305Z,4.30
2019-05-16T21:11:07.812Z,4.83
2019-05-16T21:13:37.188Z,4.90
2019-05-16T21:16:07.201Z,4.40
2019-05-16T21:18:37.743Z,5.20
2019-05-16T21:21:07.822Z,4.97
2019-05-16T21:23:37.494Z,4.72
2019-05-16T21:26:06.836Z,4.72
2019-05-16T21:28:36.926Z,5.30
2019-05-16T21:31:07.515Z,4.45
2019-05-16T21:33:37.426Z,3.67
2019-05-16T21:36:07.872Z,4.40
2019-05-16T21:38:37.307Z,5.10
2019-05-16T21:41:07.226Z,5.25
2019-05-16T21:43:37.713Z,4.83
2019-05-16T21:46:07.491Z,4.22
2019-05-16T21:48:37.104Z,4.67
2019-05-16T21:51:07.897Z,4.62
2019-05-16T21:53:37.649Z,4.37
2019-05-16T21:56:07.165Z,4.72
2019-05-16T21:58:37.235Z,5.00
2019-05-16T22:01:09.012Z,5.37
2019-05-16T22:03:38.240Z,5.15
2019-05-16T22:06:08.133Z,5.95
2019-05-16T22:08:37.493Z,4.83
2019-05-16T22:11:06.847Z,5.67
2019-05-16T22:13:37.062Z,5.58
2019-05-16T22:16:08.172Z,5.87
2019-05-16T22:18:38.502Z,5.40
2019-05-16T22:21:08.077Z,5.35
2019-05-16T22:23:37.427Z,6.05
2019-05-16T22:26:07.676Z,5.10
2019-05-16T22:28:37.438Z,5.00
2019-05-16T22:31:07.599Z,5.30
2019-05-16T22:33:37.466Z,4.37
2019-05-16T22:36:07.154Z,4.72
2019-05-16T22:38:36.468Z,4.70
2019-05-16T22:41:07.277Z,4.58
2019-05-16T22:43:37.118Z,5.83
2019-05-16T22:46:09.775Z,6.40
2019-05-16T22:48:37.434Z,5.25
2019-05-16T22:51:07.217Z,6.40
2019-05-16T22:53:36.923Z,5.80
2019-05-16T22:56:07.473Z,5.15
2019-05-16T22:58:36.932Z,6.28
2019-05-16T23:01:06.941Z,6.00
2019-05-16T23:03:37.962Z,6.00
2019-05-16T23:06:07.834Z,6.62
2019-05-16T23:08:37.434Z,6.15
2019-05-16T23:11:07.268Z,6.55
2019-05-16T23:13:37.044Z,5.33
2019-05-16T23:16:06.891Z,6.20
2019-05-16T23:18:37.547Z,5.35
2019-05-16T23:21:07.054Z,5.22
2019-05-16T23:23:37.171Z,5.87
2019-05-16T23:26:06.652Z,5.33
2019-05-16T23:28:36.739Z,5.65
2019-05-16T23:31:06.368Z,5.62
2019-05-16T23:33:36.605Z,6.60
2019-05-16T23:36:07.054Z,6.47
2019-05-16T23:38:36.989Z,5.47
2019-05-16T23:41:06.745Z,4.80
2019-05-16T23:43:37.389Z,6.42
2019-05-16T23:46:07.200Z,5.47
2019-05-16T23:48:36.589Z,5.70
2019-05-16T23:51:07.798Z,5.75
2019-05-16T23:53:37.212Z,5.37
2019-05-16T23:56:07.538Z,6.35
2019-05-16T23:58:37.116Z,7.20
